createdAt,value
2023-03-05T00:01:55.960Z,71.50
2023-03-05T00:04:32.222Z,71.44
2023-03-05T00:07:12.472Z,71.39
2023-03-05T00:09:48.976Z,71.27
2023-03-05T00:12:25.608Z,70.82
2023-03-05T00:15:02.080Z,70.26
2023-03-05T00:17:38.749Z,70.33
2023-03-05T00:20:17.795Z,70.40
2023-03-05T00:22:54.243Z,70.39
2023-03-05T00:25:31.710Z,70.40
2023-03-05T00:28:08.743Z,70.35
2023-03-05T00:30:45.717Z,70.00
2023-03-05T00:33:22.076Z,69.61
2023-03-05T00:35:58.815Z,69.27
2023-03-05T00:38:36.222Z,69.54
2023-03-05T00:41:13.040Z,69.64
2023-03-05T00:43:49.829Z,69.69
2023-03-05T00:46:27.769Z,69.63
2023-03-05T00:49:04.610Z,69.25
2023-03-05T00:51:41.819Z,69.20
2023-03-05T00:54:18.226Z,68.96
2023-03-05T00:56:54.888Z,68.75
2023-03-05T00:59:31.241Z,68.81
2023-03-05T01:02:07.518Z,68.75
2023-03-05T01:04:47.206Z,68.62
2023-03-05T01:07:23.494Z,68.50
2023-03-05T01:09:59.816Z,68.50
2023-03-05T01:12:36.340Z,68.61
2023-03-05T01:15:14.424Z,68.76
2023-03-05T01:17:50.692Z,68.63
2023-03-05T01:20:28.129Z,68.62
2023-03-05T01:23:04.463Z,68.74
2023-03-05T01:25:41.251Z,68.71
2023-03-05T01:28:18.031Z,68.41
2023-03-05T01:30:54.887Z,68.47
2023-03-05T01:33:31.234Z,68.73
2023-03-05T01:36:16.217Z,68.50
2023-03-05T01:38:53.043Z,67.71
2023-03-05T01:41:29.585Z,67.24
2023-03-05T01:44:06.754Z,67.01
2023-03-05T01:46:44.373Z,66.95
2023-03-05T01:49:34.515Z,66.95
2023-03-05T01:52:18.937Z,66.97
2023-03-05T01:55:00.964Z,67.03
2023-03-05T01:57:43.858Z,66.81
2023-03-05T02:00:30.617Z,66.08
2023-03-05T02:03:11.914Z,65.65
2023-03-05T02:05:49.153Z,65.59
2023-03-05T02:08:26.716Z,64.83
2023-03-05T02:11:03.308Z,65.04
2023-03-05T02:13:41.389Z,64.87
2023-03-05T02:16:17.826Z,64.51
2023-03-05T02:18:54.434Z,64.20
2023-03-05T02:21:46.686Z,64.18
2023-03-05T02:24:38.246Z,63.42
2023-03-05T02:27:16.258Z,62.95
2023-03-05T02:29:53.739Z,62.90
2023-03-05T02:32:31.661Z,62.12
2023-03-05T02:35:09.567Z,61.65
2023-03-05T02:37:46.244Z,61.36
2023-03-05T02:40:23.280Z,61.32
2023-03-05T02:43:00.492Z,61.38
2023-03-05T02:45:37.739Z,61.02
2023-03-05T02:48:14.344Z,60.87
2023-03-05T02:50:51.182Z,60.89
2023-03-05T02:53:28.116Z,60.65
2023-03-05T02:56:05.958Z,60.35
2023-03-05T02:58:44.263Z,59.91
2023-03-05T03:01:21.013Z,59.97
2023-03-05T03:03:57.784Z,60.13
2023-03-05T03:06:34.252Z,59.69
2023-03-05T03:09:10.716Z,59.32
2023-03-05T03:11:47.314Z,59.12
2023-03-05T03:14:23.960Z,58.98
2023-03-05T03:17:01.082Z,59.28
2023-03-05T03:19:38.075Z,59.06
2023-03-05T03:22:17.033Z,58.99
2023-03-05T03:24:53.343Z,58.76
2023-03-05T03:27:29.755Z,59.01
2023-03-05T03:30:07.659Z,59.09
2023-03-05T03:32:44.439Z,59.11
2023-03-05T03:35:21.646Z,59.13
2023-03-05T03:37:58.144Z,59.13
2023-03-05T03:40:36.050Z,58.88
2023-03-05T03:43:12.521Z,58.06
2023-03-05T03:45:49.300Z,58.30
2023-03-05T03:48:25.555Z,58.00
2023-03-05T03:51:04.724Z,57.71
2023-03-05T03:53:41.052Z,57.70
2023-03-05T03:56:17.415Z,58.37
2023-03-05T03:58:56.553Z,58.24
2023-03-05T04:01:33.164Z,58.78
2023-03-05T04:04:11.636Z,59.25
2023-03-05T04:06:48.283Z,59.19
2023-03-05T04:09:24.668Z,59.05
2023-03-05T04:12:01.425Z,58.90
2023-03-05T04:14:38.744Z,58.75
2023-03-05T04:17:16.198Z,59.19
2023-03-05T04:19:53.158Z,59.13
2023-03-05T04:22:30.496Z,59.59
2023-03-05T04:25:09.854Z,59.21
2023-03-05T04:27:46.725Z,59.13
2023-03-05T04:30:24.339Z,58.89
2023-03-05T04:33:01.172Z,58.41
2023-03-05T04:35:38.235Z,58.56
2023-03-05T04:38:15.571Z,58.64
2023-03-05T04:40:53.084Z,58.53
2023-03-05T04:43:30.132Z,58.37
2023-03-05T04:46:08.259Z,58.56
2023-03-05T04:48:44.782Z,58.80
2023-03-05T04:51:21.076Z,59.02
2023-03-05T04:53:57.707Z,58.87
2023-03-05T04:56:34.036Z,59.24
2023-03-05T04:59:10.791Z,59.44
2023-03-05T05:01:47.516Z,59.45
2023-03-05T05:04:24.309Z,59.64
2023-03-05T05:07:03.066Z,59.69
2023-03-05T05:09:41.452Z,59.98
2023-03-05T05:12:18.262Z,59.94
2023-03-05T05:14:54.830Z,60.03
2023-03-05T05:17:33.340Z,60.00
2023-03-05T05:20:16.752Z,60.14
2023-03-05T05:22:52.976Z,60.33
2023-03-05T05:25:29.621Z,60.49
2023-03-05T05:28:06.514Z,60.71
2023-03-05T05:30:43.170Z,60.93
2023-03-05T05:33:19.512Z,61.15
2023-03-05T05:35:56.335Z,61.27
2023-03-05T05:38:33.346Z,61.65
2023-03-05T05:41:14.154Z,61.85
2023-03-05T05:43:50.785Z,62.09
2023-03-05T05:46:29.107Z,62.15
2023-03-05T05:49:05.675Z,62.25
2023-03-05T05:51:42.405Z,62.58
2023-03-05T05:54:20.037Z,62.88
2023-03-05T05:56:56.565Z,63.22
2023-03-05T05:59:32.936Z,63.68
2023-03-05T06:02:11.246Z,64.12
2023-03-05T06:04:47.831Z,64.19
2023-03-05T06:07:24.056Z,64.35
2023-03-05T06:10:00.598Z,64.66
2023-03-05T06:12:37.210Z,64.80
2023-03-05T06:15:15.215Z,65.19
2023-03-05T06:17:51.408Z,65.61
2023-03-05T06:20:28.957Z,66.02
2023-03-05T06:23:05.195Z,66.36
2023-03-05T06:25:42.182Z,67.08
2023-03-05T06:28:18.527Z,67.78
2023-03-05T06:31:02.976Z,68.66
2023-03-05T06:33:41.193Z,69.58
2023-03-05T06:36:20.805Z,70.14
2023-03-05T06:38:58.884Z,70.40
2023-03-05T06:41:36.351Z,70.74
2023-03-05T06:44:13.061Z,70.94
2023-03-05T06:46:49.769Z,71.12
2023-03-05T06:49:26.154Z,71.14
2023-03-05T06:52:02.729Z,71.22
2023-03-05T06:54:39.298Z,71.27
2023-03-05T06:57:17.076Z,71.44
2023-03-05T06:59:53.383Z,71.34
2023-03-05T07:02:29.946Z,71.33
2023-03-05T07:05:07.930Z,71.43
2023-03-05T07:07:44.170Z,71.28
2023-03-05T07:10:20.899Z,71.28
2023-03-05T07:12:57.630Z,71.20
2023-03-05T07:15:34.562Z,70.94
2023-03-05T07:18:11.646Z,70.88
2023-03-05T07:20:48.065Z,70.77
2023-03-05T07:23:28.791Z,70.56
2023-03-05T07:26:08.172Z,70.51
2023-03-05T07:28:44.982Z,70.39
2023-03-05T07:31:27.308Z,70.22
2023-03-05T07:34:06.654Z,70.16
2023-03-05T07:36:43.246Z,70.02
2023-03-05T07:39:24.689Z,70.04
2023-03-05T07:42:01.426Z,70.17
2023-03-05T07:44:40.420Z,70.32
2023-03-05T07:47:16.895Z,70.37
2023-03-05T07:49:56.609Z,70.27
2023-03-05T07:52:33.647Z,70.31
2023-03-05T07:55:12.986Z,70.35
2023-03-05T07:57:49.273Z,70.48
2023-03-05T08:00:26.691Z,70.71
2023-03-05T08:03:03.440Z,70.93
2023-03-05T08:05:41.981Z,71.00
2023-03-05T08:08:18.718Z,70.82
2023-03-05T08:10:55.035Z,70.64
2023-03-05T08:13:31.601Z,70.46
2023-03-05T08:16:15.564Z,70.50
2023-03-05T08:18:54.798Z,70.33
2023-03-05T08:21:34.697Z,70.19
2023-03-05T08:24:14.840Z,70.23
2023-03-05T08:26:51.129Z,70.19
2023-03-05T08:29:28.338Z,69.85
2023-03-05T08:32:05.465Z,69.73
2023-03-05T08:34:41.873Z,69.59
2023-03-05T08:37:18.192Z,69.64
2023-03-05T08:39:56.310Z,69.60
2023-03-05T08:42:32.811Z,69.64
2023-03-05T08:45:12.050Z,69.60
2023-03-05T08:47:48.454Z,69.93
2023-03-05T08:50:26.374Z,70.17
2023-03-05T08:53:03.092Z,70.19
2023-03-05T08:55:39.877Z,70.20
2023-03-05T08:58:16.134Z,70.30
2023-03-05T09:00:52.592Z,70.13
2023-03-05T09:03:29.266Z,69.61
2023-03-05T09:06:12.438Z,69.52
2023-03-05T09:08:48.903Z,69.47
2023-03-05T09:11:25.984Z,69.43
2023-03-05T09:14:02.505Z,69.36
2023-03-05T09:16:41.311Z,68.89
2023-03-05T09:19:18.833Z,68.36
2023-03-05T09:21:56.957Z,68.39
2023-03-05T09:24:33.708Z,67.81
2023-03-05T09:27:11.156Z,67.37
2023-03-05T09:29:47.479Z,67.02
2023-03-05T09:32:24.576Z,66.98
2023-03-05T09:35:01.527Z,66.80
2023-03-05T09:37:38.092Z,67.14
2023-03-05T09:40:23.208Z,66.88
2023-03-05T09:43:15.107Z,66.97
2023-03-05T09:46:04.986Z,67.10
2023-03-05T09:48:59.145Z,67.18
2023-03-05T09:51:42.196Z,66.87
2023-03-05T09:54:24.745Z,66.52
2023-03-05T09:57:07.267Z,66.59
2023-03-05T09:59:57.132Z,66.61
2023-03-05T10:02:44.897Z,66.60
2023-03-05T10:05:30.685Z,66.49
2023-03-05T10:08:11.505Z,66.35
2023-03-05T10:10:53.843Z,66.23
2023-03-05T10:13:35.368Z,66.36
2023-03-05T10:16:50.815Z,66.54
2023-03-05T10:20:02.961Z,66.57
2023-03-05T10:22:53.104Z,66.56
2023-03-05T10:25:50.965Z,66.60
2023-03-05T10:29:05.609Z,66.60
2023-03-05T10:32:03.903Z,66.82
2023-03-05T10:35:24.903Z,66.51
2023-03-05T10:38:48.276Z,66.76
2023-03-05T10:41:38.909Z,66.79
2023-03-05T10:44:28.754Z,66.26
2023-03-05T10:47:17.116Z,65.95
2023-03-05T10:49:58.455Z,65.98
2023-03-05T10:52:46.682Z,65.96
2023-03-05T10:55:25.461Z,65.70
2023-03-05T10:58:02.304Z,65.27
2023-03-05T11:00:38.981Z,65.21
2023-03-05T11:03:15.632Z,64.40
2023-03-05T11:06:00.188Z,64.46
2023-03-05T11:08:40.328Z,64.03
2023-03-05T11:11:24.184Z,64.10
2023-03-05T11:14:04.892Z,64.32
2023-03-05T11:16:53.245Z,64.48
2023-03-05T11:19:33.328Z,64.72
2023-03-05T11:22:21.757Z,64.86
2023-03-05T11:25:21.570Z,65.49
2023-03-05T11:28:01.827Z,66.20
2023-03-05T11:30:42.093Z,67.17
2023-03-05T11:33:24.167Z,68.38
2023-03-05T11:36:31.056Z,69.41
2023-03-05T11:39:22.638Z,70.14
2023-03-05T11:42:05.381Z,70.62
2023-03-05T11:44:51.841Z,71.22
2023-03-05T11:47:43.752Z,72.34
2023-03-05T11:50:28.544Z,73.13
2023-03-05T11:53:13.149Z,73.43
2023-03-05T11:55:54.149Z,73.26
2023-03-05T11:58:41.566Z,73.25
2023-03-05T12:01:24.338Z,73.41
2023-03-05T12:04:01.730Z,73.43
2023-03-05T12:06:45.967Z,73.32
2023-03-05T12:09:33.914Z,73.18
2023-03-05T12:12:25.936Z,72.61
2023-03-05T12:15:16.166Z,72.13
2023-03-05T12:18:12.159Z,71.60
2023-03-05T12:21:04.175Z,71.46
2023-03-05T12:23:53.123Z,71.14
2023-03-05T12:27:09.872Z,70.96
2023-03-05T12:29:53.023Z,71.30
2023-03-05T12:33:04.530Z,71.54
2023-03-05T12:35:43.089Z,71.59
2023-03-05T12:38:36.531Z,71.66
2023-03-05T12:41:46.665Z,71.68
2023-03-05T12:44:26.932Z,71.69
2023-03-05T12:47:23.864Z,71.87
2023-03-05T12:50:01.249Z,71.78
2023-03-05T12:52:39.836Z,71.70
2023-03-05T12:55:44.723Z,71.66
2023-03-05T12:58:32.690Z,71.56
2023-03-05T13:01:24.936Z,71.41
2023-03-05T13:04:11.186Z,71.28
2023-03-05T13:06:48.284Z,71.39
2023-03-05T13:09:31.865Z,71.65
2023-03-05T13:12:16.442Z,70.94
2023-03-05T13:15:00.515Z,70.39
2023-03-05T13:17:53.184Z,70.40
2023-03-05T13:20:39.540Z,70.08
2023-03-05T13:23:29.679Z,69.19
2023-03-05T13:26:19.226Z,69.62
2023-03-05T13:31:59.894Z,68.86
2023-03-05T13:34:47.626Z,69.00
2023-03-05T13:37:29.016Z,68.67
2023-03-05T13:40:20.427Z,68.19
2023-03-05T13:43:09.761Z,68.15
2023-03-05T13:45:55.147Z,68.16
2023-03-05T13:48:33.112Z,68.16
2023-03-05T13:51:12.049Z,68.04
2023-03-05T13:53:49.659Z,68.08
2023-03-05T13:56:26.128Z,67.69
2023-03-05T13:59:02.883Z,67.40
2023-03-05T14:01:45.845Z,66.78
2023-03-05T14:04:30.395Z,66.68
2023-03-05T14:07:24.750Z,67.14
2023-03-05T14:10:03.197Z,67.27
2023-03-05T14:12:44.214Z,67.34
2023-03-05T14:15:30.743Z,67.23
2023-03-05T14:18:25.971Z,66.76
2023-03-05T14:21:11.277Z,67.01
2023-03-05T14:23:51.757Z,67.16
2023-03-05T14:26:34.051Z,67.47
2023-03-05T14:29:21.181Z,67.60
2023-03-05T14:32:01.484Z,67.70
2023-03-05T14:34:42.174Z,67.72
2023-03-05T14:37:28.429Z,67.45
2023-03-05T14:40:08.629Z,65.28
2023-03-05T14:42:58.649Z,64.46
2023-03-05T14:45:38.465Z,63.57
2023-03-05T14:48:19.237Z,61.70
2023-03-05T14:50:58.408Z,60.90
2023-03-05T14:53:42.464Z,60.90
2023-03-05T14:56:27.560Z,60.44
2023-03-05T14:59:03.985Z,60.32
2023-03-05T15:01:40.437Z,59.94
2023-03-05T15:04:19.428Z,59.88
2023-03-05T15:06:56.014Z,59.70
2023-03-05T15:09:32.595Z,59.80
2023-03-05T15:12:10.697Z,59.12
2023-03-05T15:14:47.841Z,59.56
2023-03-05T15:17:30.352Z,59.86
2023-03-05T15:20:10.589Z,60.20
2023-03-05T15:22:47.205Z,60.54
2023-03-05T15:25:26.949Z,60.95
2023-03-05T15:28:03.605Z,61.30
2023-03-05T15:30:43.667Z,61.68
2023-03-05T15:33:23.177Z,62.43
2023-03-05T15:36:00.524Z,62.94
2023-03-05T15:38:38.997Z,63.22
2023-03-05T15:41:17.725Z,63.41
2023-03-05T15:43:54.377Z,63.77
2023-03-05T15:46:32.684Z,64.02
2023-03-05T15:49:09.413Z,64.12
2023-03-05T15:51:46.279Z,64.27
2023-03-05T15:54:22.904Z,64.55
2023-03-05T15:56:59.490Z,64.75
2023-03-05T15:59:36.072Z,64.98
2023-03-05T16:02:12.823Z,65.30
2023-03-05T16:04:49.512Z,65.28
2023-03-05T16:07:25.907Z,65.32
2023-03-05T16:10:03.012Z,65.50
2023-03-05T16:12:43.517Z,65.31
2023-03-05T16:15:23.600Z,65.01
2023-03-05T16:18:06.168Z,65.32
2023-03-05T16:20:43.009Z,65.27
2023-03-05T16:23:19.894Z,64.95
2023-03-05T16:25:58.703Z,65.22
2023-03-05T16:28:36.552Z,65.23
2023-03-05T16:31:13.495Z,65.23
2023-03-05T16:33:50.405Z,64.88
2023-03-05T16:36:31.548Z,64.72
2023-03-05T16:39:11.148Z,64.87
2023-03-05T16:41:48.227Z,65.03
2023-03-05T16:44:25.019Z,64.98
2023-03-05T16:47:01.332Z,65.06
2023-03-05T16:49:38.112Z,65.13
2023-03-05T16:52:19.701Z,65.20
2023-03-05T16:54:57.808Z,65.35
2023-03-05T16:57:34.893Z,65.32
2023-03-05T17:00:17.247Z,65.60
2023-03-05T17:02:54.411Z,65.61
2023-03-05T17:05:32.015Z,65.88
2023-03-05T17:08:09.881Z,66.28
2023-03-05T17:10:47.379Z,66.75
2023-03-05T17:13:24.017Z,67.44
2023-03-05T17:16:01.068Z,68.45
2023-03-05T17:18:38.601Z,69.06
2023-03-05T17:21:16.581Z,69.57
2023-03-05T17:23:53.340Z,69.96
2023-03-05T17:26:32.730Z,70.41
2023-03-05T17:29:10.383Z,70.39
2023-03-05T17:31:47.620Z,70.51
2023-03-05T17:34:35.580Z,71.13
2023-03-05T17:37:16.723Z,71.70
2023-03-05T17:39:53.969Z,72.06
2023-03-05T17:42:31.516Z,72.50
2023-03-05T17:45:09.906Z,72.83
2023-03-05T17:47:47.157Z,73.25
2023-03-05T17:50:25.232Z,73.37
2023-03-05T17:53:02.054Z,73.39
2023-03-05T17:55:41.175Z,73.64
2023-03-05T17:58:18.134Z,73.82
2023-03-05T18:00:55.317Z,74.35
2023-03-05T18:03:34.301Z,75.12
2023-03-05T18:06:12.737Z,75.71
2023-03-05T18:08:50.017Z,75.86
2023-03-05T18:11:27.675Z,76.11
2023-03-05T18:14:06.172Z,76.22
2023-03-05T18:16:43.002Z,76.33
2023-03-05T18:19:20.012Z,76.51
2023-03-05T18:21:57.889Z,76.54
2023-03-05T18:24:35.828Z,76.62
2023-03-05T18:27:13.019Z,76.87
2023-03-05T18:29:54.088Z,77.01
2023-03-05T18:32:31.876Z,77.26
2023-03-05T18:35:14.200Z,77.36
2023-03-05T18:37:51.035Z,77.28
2023-03-05T18:40:32.658Z,77.14
2023-03-05T18:43:11.023Z,76.99
2023-03-05T18:45:49.103Z,76.94
2023-03-05T18:48:26.646Z,76.87
2023-03-05T18:51:03.696Z,76.93
2023-03-05T18:53:40.256Z,77.21
2023-03-05T18:56:17.503Z,77.38
2023-03-05T18:58:54.410Z,77.40
2023-03-05T19:01:31.534Z,77.23
2023-03-05T19:04:08.443Z,77.10
2023-03-05T19:06:45.513Z,77.03
2023-03-05T19:09:58.857Z,76.94
2023-03-05T19:13:06.022Z,76.90
2023-03-05T19:15:57.521Z,77.00
2023-03-05T19:19:16.565Z,77.12
2023-03-05T19:21:56.455Z,77.36
2023-03-05T19:24:34.787Z,77.52
2023-03-05T19:27:13.592Z,77.59
2023-03-05T19:29:50.836Z,77.64
2023-03-05T19:32:27.764Z,77.71
2023-03-05T19:35:05.061Z,77.79
2023-03-05T19:37:41.669Z,77.71
2023-03-05T19:40:20.828Z,77.76
2023-03-05T19:42:58.011Z,77.76
2023-03-05T19:45:38.410Z,77.80
2023-03-05T19:48:16.904Z,77.75
2023-03-05T19:50:55.044Z,77.80
2023-03-05T19:53:32.080Z,77.89
2023-03-05T19:56:11.847Z,77.93
2023-03-05T19:58:50.286Z,78.02
2023-03-05T20:01:29.997Z,78.12
2023-03-05T20:04:09.519Z,78.19
2023-03-05T20:06:47.003Z,78.02
2023-03-05T20:09:23.850Z,78.00
2023-03-05T20:12:02.850Z,78.00
2023-03-05T20:14:40.162Z,77.95
2023-03-05T20:17:17.534Z,77.87
2023-03-05T20:19:58.994Z,77.60
2023-03-05T20:22:35.943Z,77.10
2023-03-05T20:25:16.523Z,75.84
2023-03-05T20:27:54.490Z,75.43
2023-03-05T20:30:31.656Z,75.01
2023-03-05T20:33:09.324Z,74.81
2023-03-05T20:35:46.279Z,74.81
2023-03-05T20:38:29.678Z,74.84
2023-03-05T20:41:10.331Z,74.74
2023-03-05T20:43:50.690Z,74.60
2023-03-05T20:46:31.433Z,74.52
2023-03-05T20:49:09.109Z,74.58
2023-03-05T20:51:49.206Z,74.65
2023-03-05T20:54:27.374Z,74.80
2023-03-05T20:57:04.290Z,74.83
2023-03-05T20:59:41.206Z,74.91
2023-03-05T21:02:18.505Z,74.99
2023-03-05T21:04:55.135Z,74.94
2023-03-05T21:07:31.602Z,74.96
2023-03-05T21:10:11.101Z,75.04
2023-03-05T21:12:47.887Z,75.17
2023-03-05T21:15:29.598Z,75.37
2023-03-05T21:18:09.485Z,75.59
2023-03-05T21:20:46.115Z,75.84
2023-03-05T21:23:22.405Z,76.00
2023-03-05T21:25:59.072Z,76.18
2023-03-05T21:28:35.527Z,76.34
2023-03-05T21:31:21.662Z,76.46
2023-03-05T21:33:58.172Z,76.63
2023-03-05T21:36:35.263Z,76.77
2023-03-05T21:39:11.828Z,76.95
2023-03-05T21:41:48.509Z,77.23
2023-03-05T21:44:25.134Z,77.43
2023-03-05T21:47:01.472Z,77.74
2023-03-05T21:49:37.910Z,77.91
2023-03-05T21:52:15.316Z,78.12
2023-03-05T21:54:53.952Z,78.38
2023-03-05T21:57:30.452Z,78.45
2023-03-05T22:00:10.075Z,78.57
2023-03-05T22:02:48.225Z,78.63
2023-03-05T22:05:25.135Z,78.76
2023-03-05T22:08:01.398Z,78.81
2023-03-05T22:10:37.747Z,78.98
2023-03-05T22:13:17.746Z,79.19
2023-03-05T22:15:57.299Z,79.43
2023-03-05T22:18:36.248Z,79.63
2023-03-05T22:21:27.037Z,79.83
2023-03-05T22:24:04.021Z,79.96
2023-03-05T22:26:43.134Z,80.13
2023-03-05T22:29:19.906Z,80.25
2023-03-05T22:31:58.457Z,80.35
2023-03-05T22:34:35.115Z,80.42
2023-03-05T22:37:12.350Z,80.45
2023-03-05T22:39:48.864Z,80.56
2023-03-05T22:42:25.766Z,80.55
2023-03-05T22:45:06.039Z,80.55
2023-03-05T22:47:42.876Z,80.62
2023-03-05T22:50:20.156Z,80.76
2023-03-05T22:52:56.525Z,80.86
2023-03-05T22:55:33.249Z,80.91
2023-03-05T22:58:09.793Z,80.97
2023-03-05T23:00:46.240Z,81.00
2023-03-05T23:03:22.635Z,81.00
2023-03-05T23:05:59.289Z,81.04
2023-03-05T23:08:36.270Z,81.01
2023-03-05T23:11:17.118Z,81.07
2023-03-05T23:13:53.413Z,81.18
2023-03-05T23:16:29.773Z,81.20
2023-03-05T23:19:06.139Z,81.20
2023-03-05T23:21:42.813Z,81.21
2023-03-05T23:24:19.203Z,81.23
2023-03-05T23:26:55.658Z,81.23
2023-03-05T23:30:20.653Z,81.23
2023-03-05T23:33:00.774Z,81.14
2023-03-05T23:35:41.864Z,81.17
2023-03-05T23:38:19.583Z,81.10
2023-03-05T23:41:01.214Z,81.10
2023-03-05T23:43:38.436Z,81.12
2023-03-05T23:46:18.338Z,81.26
2023-03-05T23:48:54.821Z,81.25
2023-03-05T23:51:31.189Z,81.32
2023-03-05T23:54:08.211Z,81.45
2023-03-05T23:56:44.898Z,81.50
2023-03-05T23:59:22.233Z,81.48
